createdAt,value
2018-04-18T00:00:47.727Z,101632.88
2018-04-18T00:03:15.399Z,101634.02
2018-04-18T00:05:43.048Z,101633.98
2018-04-18T00:08:10.698Z,101642.48
2018-04-18T00:10:38.325Z,101640.36
2018-04-18T00:13:05.982Z,101640.86
2018-04-18T00:15:33.590Z,101644.45
2018-04-18T00:18:01.263Z,101644.02
2018-04-18T00:20:28.878Z,101645.18
2018-04-18T00:22:56.523Z,101645.98
2018-04-18T00:25:24.148Z,101641.72
2018-04-18T00:27:51.800Z,101646.75
2018-04-18T00:30:19.416Z,101647.59
2018-04-18T00:32:47.072Z,101648.84
2018-04-18T00:35:14.726Z,101649.06
2018-04-18T00:37:42.408Z,101650.89
2018-04-18T00:40:10.046Z,101656.73
2018-04-18T00:42:37.698Z,101651.86
2018-04-18T00:45:05.323Z,101648.47
2018-04-18T00:47:33.001Z,101655.16
2018-04-18T00:50:00.610Z,101652.23
2018-04-18T00:52:28.272Z,101654.11
2018-04-18T00:54:55.893Z,101651.21
2018-04-18T00:57:23.500Z,101658.43
2018-04-18T00:59:51.157Z,101653.56
2018-04-18T01:02:18.762Z,101657.77
2018-04-18T01:04:46.441Z,101657.45
2018-04-18T01:07:14.079Z,101650.94
2018-04-18T01:09:41.788Z,101656.03
2018-04-18T01:12:09.406Z,101658.99
2018-04-18T01:14:37.118Z,101665.22
2018-04-18T01:17:04.737Z,101664.95
2018-04-18T01:19:32.450Z,101660.78
2018-04-18T01:22:00.060Z,101667.05
2018-04-18T01:24:27.740Z,101672.98
2018-04-18T01:26:55.469Z,101668.02
2018-04-18T01:29:23.188Z,101665.92
2018-04-18T01:31:50.829Z,101664.16
2018-04-18T01:34:18.488Z,101666.83
2018-04-18T01:36:46.158Z,101670.68
2018-04-18T01:39:13.804Z,101672.18
2018-04-18T01:41:41.467Z,101672.60
2018-04-18T01:44:09.128Z,101673.55
2018-04-18T01:46:36.858Z,101677.11
2018-04-18T01:49:16.331Z,101673.70
2018-04-18T01:51:43.942Z,101678.08
2018-04-18T01:54:11.622Z,101682.91
2018-04-18T01:56:39.239Z,101680.58
2018-04-18T01:59:06.886Z,101684.48
2018-04-18T02:01:34.519Z,101688.97
2018-04-18T02:04:02.186Z,101680.95
2018-04-18T02:06:29.798Z,101687.80
2018-04-18T02:08:57.591Z,101683.08
2018-04-18T02:11:25.219Z,101692.17
2018-04-18T02:13:52.881Z,101692.48
2018-04-18T02:16:20.490Z,101692.56
2018-04-18T02:18:48.148Z,101702.81
2018-04-18T02:21:15.777Z,101693.87
2018-04-18T02:23:43.434Z,101695.36
2018-04-18T02:26:11.067Z,101700.11
2018-04-18T02:28:38.766Z,101698.48
2018-04-18T02:31:06.372Z,101698.45
2018-04-18T02:33:34.067Z,101693.17
2018-04-18T02:36:01.727Z,101696.41
2018-04-18T02:38:29.377Z,101702.70
2018-04-18T02:40:57.081Z,101703.52
2018-04-18T02:43:24.742Z,101706.20
2018-04-18T02:45:52.355Z,101705.11
2018-04-18T02:48:20.050Z,101709.27
2018-04-18T02:50:47.715Z,101711.17
2018-04-18T02:53:15.365Z,101713.70
2018-04-18T02:55:42.985Z,101714.27
2018-04-18T02:58:10.631Z,101716.09
2018-04-18T03:00:38.235Z,101727.44
2018-04-18T03:03:05.922Z,101725.25
2018-04-18T03:05:33.526Z,101725.94
2018-04-18T03:08:01.197Z,101726.62
2018-04-18T03:10:28.811Z,101722.98
2018-04-18T03:12:56.428Z,101714.33
2018-04-18T03:15:24.084Z,101721.12
2018-04-18T03:17:51.700Z,101723.69
2018-04-18T03:20:19.405Z,101723.98
2018-04-18T03:22:47.015Z,101725.47
2018-04-18T03:25:14.687Z,101725.33
2018-04-18T03:27:42.311Z,101730.41
2018-04-18T03:30:09.963Z,101729.88
2018-04-18T03:32:37.591Z,101726.02
2018-04-18T03:35:05.246Z,101726.48
2018-04-18T03:37:32.858Z,101731.23
2018-04-18T03:40:00.511Z,101733.27
2018-04-18T03:42:28.147Z,101735.00
2018-04-18T03:44:55.847Z,101733.77
2018-04-18T03:47:23.462Z,101735.05
2018-04-18T03:49:51.115Z,101740.09
2018-04-18T03:52:18.727Z,101735.86
2018-04-18T03:54:46.388Z,101742.55
2018-04-18T03:57:13.997Z,101739.81
2018-04-18T03:59:41.668Z,101747.66
2018-04-18T04:02:09.286Z,101749.42
2018-04-18T04:04:36.983Z,101746.00
2018-04-18T04:07:04.600Z,101745.16
2018-04-18T04:09:32.263Z,101745.05
2018-04-18T04:11:59.866Z,101746.22
2018-04-18T04:14:27.506Z,101739.30
2018-04-18T04:20:13.698Z,101752.09
2018-04-18T04:22:53.091Z,101754.31
2018-04-18T04:25:20.755Z,101755.77
2018-04-18T04:27:48.386Z,101761.95
2018-04-18T04:30:16.086Z,101760.23
2018-04-18T04:32:43.739Z,101760.02
2018-04-18T04:35:11.457Z,101759.92
2018-04-18T04:37:39.134Z,101761.78
2018-04-18T04:40:06.860Z,101761.62
2018-04-18T04:42:34.494Z,101766.76
2018-04-18T04:45:02.157Z,101768.87
2018-04-18T04:47:29.782Z,101772.01
2018-04-18T04:49:57.474Z,101774.41
2018-04-18T04:52:25.097Z,101778.52
2018-04-18T04:54:52.767Z,101784.02
2018-04-18T04:57:20.394Z,101783.41
2018-04-18T04:59:48.068Z,101792.55
2018-04-18T05:02:15.783Z,101795.29
2018-04-18T05:04:43.465Z,101792.00
2018-04-18T05:07:11.150Z,101793.67
2018-04-18T05:09:38.847Z,101799.09
2018-04-18T05:12:06.483Z,101802.73
2018-04-18T05:14:34.156Z,101802.30
2018-04-18T05:17:01.777Z,101810.50
2018-04-18T05:19:29.434Z,101809.08
2018-04-18T05:21:57.047Z,101813.55
2018-04-18T05:24:24.726Z,101812.08
2018-04-18T05:26:52.335Z,101818.34
2018-04-18T05:29:20.007Z,101812.88
2018-04-18T05:31:47.667Z,101819.84
2018-04-18T05:34:15.287Z,101824.55
2018-04-18T05:36:42.960Z,101825.66
2018-04-18T05:39:10.580Z,101828.34
2018-04-18T05:41:38.308Z,101830.19
2018-04-18T05:44:05.920Z,101830.80
2018-04-18T05:46:33.589Z,101826.73
2018-04-18T05:49:01.198Z,101831.32
2018-04-18T05:51:28.889Z,101832.16
2018-04-18T05:53:56.544Z,101826.13
2018-04-18T05:56:24.262Z,101828.31
2018-04-18T05:58:51.907Z,101832.80
2018-04-18T06:01:19.575Z,101824.94
2018-04-18T06:03:47.190Z,101828.72
2018-04-18T06:06:14.865Z,101833.60
2018-04-18T06:08:42.640Z,101825.47
2018-04-18T06:11:10.382Z,101835.84
2018-04-18T06:13:38.003Z,101833.98
2018-04-18T06:16:05.655Z,101827.44
2018-04-18T06:18:33.340Z,101830.86
2018-04-18T06:21:01.209Z,101835.75
2018-04-18T06:23:28.873Z,101833.58
2018-04-18T06:25:56.547Z,101839.73
2018-04-18T06:28:24.160Z,101838.30
2018-04-18T06:30:51.833Z,101840.83
2018-04-18T06:33:19.447Z,101838.45
2018-04-18T06:35:47.150Z,101839.35
2018-04-18T06:38:14.789Z,101845.78
2018-04-18T06:40:42.488Z,101845.72
2018-04-18T06:43:10.146Z,101842.19
2018-04-18T06:45:37.803Z,101848.83
2018-04-18T06:48:05.424Z,101848.03
2018-04-18T06:50:33.091Z,101849.62
2018-04-18T06:53:00.785Z,101852.24
2018-04-18T06:55:28.468Z,101855.79
2018-04-18T06:57:56.084Z,101851.77
2018-04-18T07:00:23.746Z,101858.53
2018-04-18T07:02:51.350Z,101863.54
2018-04-18T07:05:19.003Z,101870.73
2018-04-18T07:07:46.618Z,101874.28
2018-04-18T07:10:14.300Z,101870.54
2018-04-18T07:12:41.982Z,101879.51
2018-04-18T07:15:09.639Z,101872.78
2018-04-18T07:17:37.254Z,101879.59
2018-04-18T07:20:04.911Z,101874.67
2018-04-18T07:22:32.531Z,101876.17
2018-04-18T07:25:00.377Z,101878.69
2018-04-18T07:27:28.018Z,101887.28
2018-04-18T07:29:55.709Z,101890.58
2018-04-18T07:32:23.331Z,101891.75
2018-04-18T07:34:51.046Z,101897.41
2018-04-18T07:37:18.663Z,101898.81
2018-04-18T07:39:46.279Z,101898.81
2018-04-18T07:42:13.969Z,101895.52
2018-04-18T07:44:41.589Z,101896.72
2018-04-18T07:47:09.242Z,101898.50
2018-04-18T07:49:36.850Z,101909.51
2018-04-18T07:52:04.511Z,101903.96
2018-04-18T07:54:32.130Z,101906.64
2018-04-18T07:56:59.783Z,101911.59
2018-04-18T07:59:27.398Z,101923.20
2018-04-18T08:01:55.104Z,101926.54
2018-04-18T08:04:22.711Z,101928.45
2018-04-18T08:06:50.372Z,101931.36
2018-04-18T08:09:17.993Z,101923.11
2018-04-18T08:11:45.646Z,101927.92
2018-04-18T08:14:13.258Z,101932.81
2018-04-18T08:16:40.963Z,101922.87
2018-04-18T08:19:08.583Z,101923.11
2018-04-18T08:21:36.239Z,101929.34
2018-04-18T08:24:03.858Z,101925.64
2018-04-18T08:26:31.539Z,101927.50
2018-04-18T08:28:59.161Z,101928.89
2018-04-18T08:31:26.815Z,101930.40
2018-04-18T08:33:54.411Z,101927.09
2018-04-18T08:36:22.114Z,101930.82
2018-04-18T08:38:49.719Z,101933.39
2018-04-18T08:41:17.375Z,101929.33
2018-04-18T08:43:44.990Z,101933.05
2018-04-18T08:46:12.662Z,101931.28
2018-04-18T08:48:40.279Z,101930.98
2018-04-18T08:51:07.931Z,101939.66
2018-04-18T08:53:35.547Z,101931.56
2018-04-18T08:56:03.193Z,101935.92
2018-04-18T08:58:30.801Z,101937.73
2018-04-18T09:00:58.462Z,101942.63
2018-04-18T09:03:26.070Z,101935.30
2018-04-18T09:05:53.719Z,101942.91
2018-04-18T09:08:21.331Z,101936.30
2018-04-18T09:10:48.982Z,101934.16
2018-04-18T09:13:16.589Z,101935.02
2018-04-18T09:15:44.291Z,101935.44
2018-04-18T09:18:11.907Z,101934.78
2018-04-18T09:20:39.572Z,101936.76
2018-04-18T09:23:07.184Z,101929.97
2018-04-18T09:25:34.834Z,101942.63
2018-04-18T09:28:02.448Z,101934.91
2018-04-18T09:30:30.102Z,101939.90
2018-04-18T09:32:57.741Z,101931.19
2018-04-18T09:35:25.394Z,101935.90
2018-04-18T09:37:53.042Z,101936.86
2018-04-18T09:40:20.711Z,101929.01
2018-04-18T09:42:48.330Z,101931.98
2018-04-18T09:45:15.951Z,101933.33
2018-04-18T09:47:43.615Z,101926.28
2018-04-18T09:50:11.262Z,101927.92
2018-04-18T09:52:38.922Z,101926.30
2018-04-18T09:55:06.537Z,101923.14
2018-04-18T09:57:34.272Z,101921.16
2018-04-18T10:00:01.887Z,101924.70
2018-04-18T10:02:29.578Z,101920.63
2018-04-18T10:05:11.891Z,101925.88
2018-04-18T10:07:39.543Z,101923.03
2018-04-18T10:10:07.162Z,101924.17
2018-04-18T10:12:34.814Z,101920.80
2018-04-18T10:15:02.446Z,101923.21
2018-04-18T10:17:30.106Z,101921.95
2018-04-18T10:19:57.733Z,101922.98
2018-04-18T10:22:25.382Z,101923.69
2018-04-18T10:24:52.986Z,101925.13
2018-04-18T10:27:20.631Z,101917.91
2018-04-18T10:29:48.269Z,101916.53
2018-04-18T10:32:15.931Z,101920.77
2018-04-18T10:34:43.546Z,101921.02
2018-04-18T10:37:11.239Z,101913.69
2018-04-18T10:39:38.895Z,101911.88
2018-04-18T10:42:06.550Z,101909.30
2018-04-18T10:44:34.177Z,101903.52
2018-04-18T10:47:01.835Z,101898.52
2018-04-18T10:49:29.442Z,101901.72
2018-04-18T10:51:57.123Z,101895.88
2018-04-18T10:54:24.782Z,101892.78
2018-04-18T10:56:52.438Z,101890.34
2018-04-18T10:59:20.045Z,101885.92
2018-04-18T11:01:47.698Z,101897.87
2018-04-18T11:04:15.324Z,101892.03
2018-04-18T11:06:42.975Z,101886.23
2018-04-18T11:09:10.596Z,101887.13
2018-04-18T11:11:38.255Z,101881.06
2018-04-18T11:14:05.873Z,101886.36
2018-04-18T11:16:33.541Z,101880.25
2018-04-18T11:19:01.144Z,101880.28
2018-04-18T11:21:28.804Z,101885.30
2018-04-18T11:23:56.423Z,101879.19
2018-04-18T11:26:24.083Z,101875.64
2018-04-18T11:28:51.711Z,101875.82
2018-04-18T11:31:19.366Z,101873.84
2018-04-18T11:33:47.031Z,101873.98
2018-04-18T11:36:14.738Z,101871.31
2018-04-18T11:38:42.332Z,101857.81
2018-04-18T11:41:09.981Z,101861.42
2018-04-18T11:43:37.624Z,101861.34
2018-04-18T11:46:05.291Z,101857.04
2018-04-18T11:48:32.898Z,101862.46
2018-04-18T11:51:00.573Z,101854.14
2018-04-18T11:53:28.225Z,101854.82
2018-04-18T11:55:55.832Z,101855.88
2018-04-18T11:58:23.617Z,101849.03
2018-04-18T12:00:51.242Z,101853.54
2018-04-18T12:03:18.906Z,101847.71
2018-04-18T12:05:46.532Z,101847.94
2018-04-18T12:08:14.193Z,101848.06
2018-04-18T12:10:41.811Z,101846.77
2018-04-18T12:13:09.467Z,101842.88
2018-04-18T12:15:37.083Z,101844.63
2018-04-18T12:18:04.730Z,101844.69
2018-04-18T12:20:32.437Z,101839.60
2018-04-18T12:23:00.110Z,101844.14
2018-04-18T12:25:27.750Z,101837.81
2018-04-18T12:27:55.401Z,101839.32
2018-04-18T12:30:23.012Z,101842.86
2018-04-18T12:32:50.663Z,101841.89
2018-04-18T12:35:18.299Z,101838.22
2018-04-18T12:37:45.957Z,101835.05
2018-04-18T12:40:13.603Z,101833.91
2018-04-18T12:42:41.253Z,101837.27
2018-04-18T12:45:08.881Z,101833.19
2018-04-18T12:47:36.530Z,101834.19
2018-04-18T12:50:04.160Z,101831.27
2018-04-18T12:52:31.822Z,101833.98
2018-04-18T12:54:59.469Z,101823.59
2018-04-18T12:57:27.130Z,101823.59
2018-04-18T12:59:54.746Z,101822.10
2018-04-18T13:02:22.411Z,101813.66
2018-04-18T13:04:50.038Z,101812.00
2018-04-18T13:07:17.728Z,101816.60
2018-04-18T13:09:45.326Z,101812.33
2018-04-18T13:12:12.988Z,101804.19
2018-04-18T13:14:40.620Z,101802.16
2018-04-18T13:17:08.279Z,101796.72
2018-04-18T13:19:35.899Z,101794.50
2018-04-18T13:22:03.574Z,101790.08
2018-04-18T13:24:31.202Z,101793.33
2018-04-18T13:26:58.860Z,101788.88
2018-04-18T13:29:26.480Z,101790.92
2018-04-18T13:31:54.138Z,101786.14
2018-04-18T13:34:21.746Z,101784.67
2018-04-18T13:36:49.396Z,101792.09
2018-04-18T13:39:17.024Z,101776.06
2018-04-18T13:41:44.678Z,101779.96
2018-04-18T13:44:12.282Z,101776.56
2018-04-18T13:49:06.831Z,101773.53
2018-04-18T13:51:34.490Z,101765.37
2018-04-18T13:54:02.123Z,101765.09
2018-04-18T13:56:29.735Z,101765.82
2018-04-18T13:58:57.416Z,101766.30
2018-04-18T14:01:25.039Z,101757.77
2018-04-18T14:03:52.710Z,101754.25
2018-04-18T14:06:20.326Z,101759.73
2018-04-18T14:08:47.995Z,101756.23
2018-04-18T14:11:15.591Z,101752.59
2018-04-18T14:13:43.259Z,101757.58
2018-04-18T14:16:10.873Z,101750.58
2018-04-18T14:18:38.518Z,101750.98
2018-04-18T14:21:06.169Z,101752.36
2018-04-18T14:23:33.835Z,101746.09
2018-04-18T14:26:01.460Z,101741.33
2018-04-18T14:28:29.118Z,101740.56
2018-04-18T14:30:56.739Z,101733.62
2018-04-18T14:33:24.401Z,101741.74
2018-04-18T14:35:52.023Z,101730.69
2018-04-18T14:38:19.683Z,101724.02
2018-04-18T14:40:47.302Z,101726.34
2018-04-18T14:43:14.960Z,101724.71
2018-04-18T14:45:42.583Z,101723.75
2018-04-18T14:48:10.237Z,101716.85
2018-04-18T14:50:37.838Z,101716.95
2018-04-18T14:53:05.488Z,101718.67
2018-04-18T14:55:33.105Z,101715.94
2018-04-18T14:58:00.770Z,101711.21
2018-04-18T15:00:28.387Z,101707.10
2018-04-18T15:02:56.035Z,101706.88
2018-04-18T15:05:23.677Z,101706.27
2018-04-18T15:07:51.337Z,101701.83
2018-04-18T15:10:18.966Z,101706.81
2018-04-18T15:12:46.639Z,101704.15
2018-04-18T15:15:14.257Z,101700.96
2018-04-18T15:17:41.909Z,101710.22
2018-04-18T15:20:09.525Z,101700.56
2018-04-18T15:22:37.176Z,101698.92
2018-04-18T15:25:04.785Z,101697.38
2018-04-18T15:27:32.438Z,101695.03
2018-04-18T15:30:00.051Z,101692.73
2018-04-18T15:32:27.709Z,101690.67
2018-04-18T15:34:55.319Z,101686.89
2018-04-18T15:37:22.982Z,101688.53
2018-04-18T15:39:50.601Z,101684.53
2018-04-18T15:42:18.283Z,101689.06
2018-04-18T15:44:45.891Z,101683.70
2018-04-18T15:47:13.551Z,101690.51
2018-04-18T15:49:41.171Z,101682.38
2018-04-18T15:52:08.835Z,101681.75
2018-04-18T15:54:36.438Z,101679.12
2018-04-18T15:57:04.116Z,101678.91
2018-04-18T15:59:31.736Z,101667.45
2018-04-18T16:01:59.370Z,101678.38
2018-04-18T16:04:27.041Z,101672.33
2018-04-18T16:06:54.657Z,101670.94
2018-04-18T16:09:22.321Z,101668.31
2018-04-18T16:11:49.952Z,101664.73
2018-04-18T16:14:17.618Z,101668.66
2018-04-18T16:16:45.231Z,101663.09
2018-04-18T16:19:12.901Z,101658.70
2018-04-18T16:21:40.514Z,101656.30
2018-04-18T16:24:08.170Z,101658.41
2018-04-18T16:26:35.810Z,101656.46
2018-04-18T16:29:15.388Z,101650.23
2018-04-18T16:31:43.026Z,101651.56
2018-04-18T16:34:10.744Z,101653.18
2018-04-18T16:36:38.403Z,101646.49
2018-04-18T16:39:06.130Z,101648.28
2018-04-18T16:41:33.800Z,101645.45
2018-04-18T16:44:01.453Z,101648.77
2018-04-18T16:46:29.062Z,101642.69
2018-04-18T16:48:56.716Z,101635.16
2018-04-18T16:51:24.325Z,101634.59
2018-04-18T16:53:51.985Z,101633.33
2018-04-18T16:56:19.603Z,101637.80
2018-04-18T16:58:47.256Z,101640.27
2018-04-18T17:01:14.876Z,101637.02
2018-04-18T17:03:42.499Z,101633.80
2018-04-18T17:06:10.153Z,101633.03
2018-04-18T17:08:37.778Z,101633.98
2018-04-18T17:11:05.431Z,101633.11
2018-04-18T17:13:33.060Z,101631.80
2018-04-18T17:16:00.760Z,101629.47
2018-04-18T17:18:28.376Z,101628.38
2018-04-18T17:20:56.093Z,101623.59
2018-04-18T17:23:23.730Z,101624.75
2018-04-18T17:25:51.378Z,101620.76
2018-04-18T17:28:18.990Z,101613.55
2018-04-18T17:30:46.639Z,101625.07
2018-04-18T17:33:14.280Z,101622.16
2018-04-18T17:35:41.967Z,101622.77
2018-04-18T17:38:09.583Z,101616.70
2018-04-18T17:40:37.244Z,101619.67
2018-04-18T17:43:04.867Z,101615.44
2018-04-18T17:45:32.523Z,101611.34
2018-04-18T17:48:00.138Z,101612.58
2018-04-18T17:50:27.830Z,101614.55
2018-04-18T17:52:55.455Z,101615.68
2018-04-18T17:55:23.100Z,101609.17
2018-04-18T17:57:50.773Z,101612.80
2018-04-18T18:00:18.441Z,101612.84
2018-04-18T18:02:46.088Z,101613.42
2018-04-18T18:05:13.759Z,101617.27
2018-04-18T18:07:41.408Z,101614.55
2018-04-18T18:10:09.028Z,101624.41
2018-04-18T18:12:36.674Z,101617.30
2018-04-18T18:15:04.340Z,101622.48
2018-04-18T18:17:31.994Z,101613.76
2018-04-18T18:19:59.634Z,101616.13
2018-04-18T18:22:27.289Z,101615.75
2018-04-18T18:24:54.942Z,101615.73
2018-04-18T18:27:22.639Z,101617.64
2018-04-18T18:29:50.291Z,101622.47
2018-04-18T18:32:18.023Z,101618.61
2018-04-18T18:34:45.630Z,101625.17
2018-04-18T18:37:13.299Z,101618.25
2018-04-18T18:39:40.918Z,101619.94
2018-04-18T18:42:08.574Z,101618.30
2018-04-18T18:44:36.195Z,101621.48
2018-04-18T18:47:03.820Z,101623.10
2018-04-18T18:49:31.471Z,101626.72
2018-04-18T18:51:59.088Z,101626.13
2018-04-18T18:54:26.739Z,101627.98
2018-04-18T18:56:54.359Z,101626.63
2018-04-18T18:59:22.032Z,101633.31
2018-04-18T19:01:49.644Z,101631.11
2018-04-18T19:04:17.320Z,101636.94
2018-04-18T19:06:44.947Z,101638.74
2018-04-18T19:09:12.619Z,101646.68
2018-04-18T19:11:40.231Z,101639.39
2018-04-18T19:14:07.898Z,101646.42
2018-04-18T19:16:35.549Z,101644.49
2018-04-18T19:19:03.206Z,101646.45
2018-04-18T19:21:30.826Z,101652.53
2018-04-18T19:23:58.476Z,101652.61
2018-04-18T19:26:26.091Z,101651.63
2018-04-18T19:28:53.751Z,101651.05
2018-04-18T19:31:21.382Z,101655.19
2018-04-18T19:33:49.070Z,101661.45
2018-04-18T19:36:16.683Z,101655.83
2018-04-18T19:38:44.339Z,101657.44
2018-04-18T19:41:11.971Z,101652.70
2018-04-18T19:43:39.755Z,101654.64
2018-04-18T19:46:07.399Z,101650.37
2018-04-18T19:48:35.106Z,101644.04
2018-04-18T19:51:02.765Z,101650.12
2018-04-18T19:53:30.430Z,101658.11
2018-04-18T19:55:58.099Z,101661.88
2018-04-18T19:58:25.766Z,101655.08
2018-04-18T20:00:53.412Z,101653.80
2018-04-18T20:03:21.090Z,101661.08
2018-04-18T20:05:48.747Z,101653.22
2018-04-18T20:08:16.407Z,101652.53
2018-04-18T20:10:44.038Z,101656.98
2018-04-18T20:13:11.741Z,101650.70
2018-04-18T20:15:39.350Z,101649.77
2018-04-18T20:18:07.015Z,101650.56
2018-04-18T20:20:34.632Z,101652.80
2018-04-18T20:23:02.256Z,101645.44
2018-04-18T20:25:29.907Z,101647.88
2018-04-18T20:27:57.531Z,101641.53
2018-04-18T20:30:25.190Z,101645.17
2018-04-18T20:32:52.856Z,101650.69
2018-04-18T20:35:20.507Z,101646.44
2018-04-18T20:37:48.118Z,101645.25
2018-04-18T20:40:15.779Z,101642.50
2018-04-18T20:42:55.419Z,101647.19
2018-04-18T20:45:23.067Z,101646.94
2018-04-18T20:47:50.670Z,101649.59
2018-04-18T20:50:18.371Z,101650.84
2018-04-18T20:52:46.075Z,101643.83
2018-04-18T20:55:13.729Z,101640.48
2018-04-18T20:57:41.342Z,101644.66
2018-04-18T21:00:09.060Z,101643.94
2018-04-18T21:02:36.677Z,101646.63
2018-04-18T21:05:04.332Z,101636.76
2018-04-18T21:07:31.938Z,101646.05
2018-04-18T21:09:59.598Z,101644.86
2018-04-18T21:12:27.259Z,101643.19
2018-04-18T21:14:54.939Z,101653.98
2018-04-18T21:17:22.568Z,101644.33
2018-04-18T21:19:50.259Z,101642.03
2018-04-18T21:22:18.176Z,101647.53
2018-04-18T21:24:45.852Z,101644.20
2018-04-18T21:27:13.490Z,101643.37
2018-04-18T21:29:41.155Z,101645.14
2018-04-18T21:32:08.778Z,101649.27
2018-04-18T21:34:36.438Z,101644.66
2018-04-18T21:37:04.069Z,101644.08
2018-04-18T21:39:31.726Z,101637.24
2018-04-18T21:41:59.334Z,101638.09
2018-04-18T21:44:27.021Z,101641.36
2018-04-18T21:46:54.686Z,101640.34
2018-04-18T21:49:22.332Z,101639.25
2018-04-18T21:51:49.942Z,101639.17
2018-04-18T21:54:17.590Z,101638.33
2018-04-18T21:56:45.200Z,101632.45
2018-04-18T21:59:12.859Z,101634.13
2018-04-18T22:01:40.472Z,101633.59
2018-04-18T22:04:08.143Z,101633.94
2018-04-18T22:06:35.787Z,101634.16
2018-04-18T22:09:03.534Z,101636.97
2018-04-18T22:11:31.147Z,101629.07
2018-04-18T22:13:58.807Z,101630.73
2018-04-18T22:16:26.438Z,101633.92
2018-04-18T22:18:54.098Z,101631.73
2018-04-18T22:21:21.719Z,101627.85
2018-04-18T22:23:49.387Z,101633.94
2018-04-18T22:26:16.999Z,101632.86
2018-04-18T22:28:44.711Z,101634.48
2018-04-18T22:31:12.358Z,101633.48
2018-04-18T22:33:40.035Z,101633.67
2018-04-18T22:36:07.721Z,101637.86
2018-04-18T22:38:35.339Z,101639.25
2018-04-18T22:41:02.996Z,101640.17
2018-04-18T22:43:30.604Z,101637.05
2018-04-18T22:45:58.266Z,101639.02
2018-04-18T22:48:25.916Z,101635.82
2018-04-18T22:50:53.575Z,101636.63
2018-04-18T22:53:21.185Z,101643.92
2018-04-18T22:55:48.843Z,101637.95
2018-04-18T22:58:16.476Z,101644.69
2018-04-18T23:00:44.175Z,101644.71
2018-04-18T23:03:11.794Z,101639.33
2018-04-18T23:05:39.468Z,101639.92
2018-04-18T23:08:07.129Z,101633.69
2018-04-18T23:10:34.766Z,101639.55
2018-04-18T23:13:02.392Z,101644.94
2018-04-18T23:15:30.048Z,101648.48
2018-04-18T23:17:57.683Z,101647.47
2018-04-18T23:20:25.326Z,101642.73
2018-04-18T23:22:52.936Z,101640.50
2018-04-18T23:25:20.579Z,101635.09
2018-04-18T23:27:48.186Z,101645.46
2018-04-18T23:30:15.843Z,101642.27
2018-04-18T23:32:43.490Z,101644.92
2018-04-18T23:35:11.153Z,101642.76
2018-04-18T23:37:38.794Z,101644.31
2018-04-18T23:40:06.443Z,101637.03
2018-04-18T23:42:34.096Z,101645.23
2018-04-18T23:45:01.785Z,101642.27
2018-04-18T23:47:29.461Z,101638.96
2018-04-18T23:49:57.186Z,101642.22
2018-04-18T23:52:24.827Z,101637.36
2018-04-18T23:54:52.508Z,101637.83
2018-04-18T23:57:20.129Z,101635.58
2018-04-18T23:59:47.794Z,101636.27
